Time;durP1;ratioP1;P1;durP2;ratioP2;P2;SDS_P1;SDS_P2;PMS_P1;PMS_P2;Temp;Humidity;BMP_temperature;BMP_pressure;BME280_temperature;BME280_humidity;BME280_pressure;Samples;Min_cycle;Max_cycle;Signal;HPM_P1;HPM_P2
2021/01/06 00:00:30;;;;;;;16.58;6.63;;;3.30;99.90;;;;;;5054823;28;20488;-81
2021/01/06 00:02:55;;;;;;;14.27;6.68;;;3.20;99.90;;;;;;5072608;28;20029;-81
2021/01/06 00:05:22;;;;;;;21.58;6.32;;;3.20;99.90;;;;;;5054306;28;20056;-81
2021/01/06 00:07:48;;;;;;;23.35;7.28;;;3.30;99.90;;;;;;5072744;28;20032;-81
2021/01/06 00:10:18;;;;;;;16.95;6.90;;;3.20;99.90;;;;;;5054232;28;20017;-81
2021/01/06 00:12:44;;;;;;;14.40;4.95;;;3.20;99.90;;;;;;5072396;28;20040;-81
2021/01/06 00:15:31;;;;;;;16.88;6.38;;;3.20;99.90;;;;;;5054416;28;20021;-81
2021/01/06 00:17:57;;;;;;;12.65;5.57;;;3.10;99.90;;;;;;5054695;28;20047;-81
2021/01/06 00:20:25;;;;;;;13.25;6.55;;;3.20;99.90;;;;;;5060580;28;20493;-81
2021/01/06 00:22:51;;;;;;;21.20;6.70;;;3.20;99.90;;;;;;5072572;28;20031;-81
2021/01/06 00:25:21;;;;;;;14.05;6.90;;;3.20;99.90;;;;;;5053757;28;20024;-81
2021/01/06 00:27:46;;;;;;;11.13;6.25;;;3.20;99.90;;;;;;5072300;28;20084;-82
2021/01/06 00:30:20;;;;;;;14.02;5.78;;;3.20;99.90;;;;;;5049871;28;20565;-81
2021/01/06 00:32:46;;;;;;;9.60;5.57;;;3.20;99.90;;;;;;5049746;28;20102;-81
2021/01/06 00:35:11;;;;;;;11.35;5.18;;;3.20;99.90;;;;;;5032322;28;20041;-81
2021/01/06 00:37:37;;;;;;;12.52;5.72;;;3.20;99.90;;;;;;5031982;28;20029;-81
2021/01/06 00:40:04;;;;;;;21.73;5.68;;;3.20;99.90;;;;;;5032799;28;20064;-81
2021/01/06 00:42:29;;;;;;;13.20;5.45;;;3.20;99.90;;;;;;5049806;28;20512;-81
2021/01/06 00:44:55;;;;;;;19.30;5.20;;;3.30;99.90;;;;;;5032495;28;20035;-81
2021/01/06 00:47:20;;;;;;;10.73;4.93;;;3.20;99.90;;;;;;5032892;28;20137;-81
2021/01/06 00:49:46;;;;;;;11.88;6.30;;;3.20;99.90;;;;;;5031576;28;20136;-81
2021/01/06 00:52:12;;;;;;;14.07;5.25;;;3.20;99.90;;;;;;5032790;28;20539;-81
2021/01/06 00:54:38;;;;;;;7.60;4.50;;;3.20;99.90;;;;;;5034124;28;20074;-82
2021/01/06 00:57:04;;;;;;;12.57;5.38;;;3.20;99.90;;;;;;5054692;28;20032;-81
2021/01/06 00:59:30;;;;;;;15.45;5.30;;;3.20;99.90;;;;;;5053436;28;20025;-82
2021/01/06 01:01:55;;;;;;;9.98;5.03;;;3.20;99.90;;;;;;5070739;28;20037;-81
2021/01/06 01:04:21;;;;;;;13.48;5.60;;;3.10;99.90;;;;;;5055341;28;20027;-81
2021/01/06 01:06:46;;;;;;;10.45;5.47;;;3.20;99.90;;;;;;5060316;28;20120;-81
2021/01/06 01:09:12;;;;;;;14.73;5.93;;;3.20;99.90;;;;;;5057367;28;20028;-81
2021/01/06 01:11:39;;;;;;;8.93;4.45;;;3.20;99.90;;;;;;5054186;28;20036;-82
2021/01/06 01:14:05;;;;;;;14.75;6.25;;;3.30;99.90;;;;;;5053797;28;20029;-81
2021/01/06 01:16:31;;;;;;;12.95;6.35;;;3.30;99.90;;;;;;5071150;28;20029;-82
2021/01/06 01:18:57;;;;;;;12.90;6.30;;;3.20;99.90;;;;;;5071409;28;20025;-81
2021/01/06 01:21:22;;;;;;;14.93;5.45;;;3.20;99.90;;;;;;5056894;28;20420;-81
2021/01/06 01:23:48;;;;;;;19.75;5.78;;;3.30;99.90;;;;;;5053022;28;20032;-81
2021/01/06 01:26:14;;;;;;;17.05;5.82;;;3.20;99.90;;;;;;5071236;28;20038;-82
2021/01/06 01:28:40;;;;;;;14.13;5.97;;;3.20;99.90;;;;;;5053020;28;20025;-81
2021/01/06 01:31:06;;;;;;;12.02;5.90;;;3.20;99.90;;;;;;5052795;28;20064;-82
2021/01/06 01:33:31;;;;;;;18.23;6.13;;;3.20;99.90;;;;;;5052700;28;20031;-81
2021/01/06 01:35:58;;;;;;;15.98;5.68;;;3.20;99.90;;;;;;5052725;28;20370;-81
2021/01/06 01:38:27;;;;;;;23.10;7.07;;;3.20;99.90;;;;;;5056843;28;20032;-81
2021/01/06 01:40:59;;;;;;;21.42;6.22;;;3.20;99.90;;;;;;5052580;28;20021;-81
2021/01/06 01:43:26;;;;;;;11.55;5.60;;;3.20;99.90;;;;;;5053016;28;20381;-82
2021/01/06 01:45:51;;;;;;;15.60;6.07;;;3.20;99.90;;;;;;5049878;28;20039;-82
2021/01/06 01:48:44;;;;;;;25.15;5.43;;;3.10;99.90;;;;;;5070809;28;20033;-82
2021/01/06 01:51:22;;;;;;;12.27;5.50;;;3.20;99.90;;;;;;5057923;28;20374;-81
2021/01/06 01:54:00;;;;;;;16.58;6.20;;;3.20;99.90;;;;;;5052561;28;20024;-82
2021/01/06 01:56:31;;;;;;;13.38;6.13;;;3.10;99.90;;;;;;5052601;28;20028;-81
2021/01/06 01:58:57;;;;;;;17.73;6.83;;;3.10;99.90;;;;;;5052381;28;20021;-81
2021/01/06 02:01:23;;;;;;;11.68;5.85;;;3.10;99.90;;;;;;5052370;28;20040;-81
2021/01/06 02:04:08;;;;;;;14.05;5.97;;;3.10;99.90;;;;;;5058496;28;20492;-81
2021/01/06 02:06:40;;;;;;;13.15;6.00;;;3.00;99.90;;;;;;5052343;28;20115;-81
2021/01/06 02:09:18;;;;;;;17.23;6.85;;;3.10;99.90;;;;;;5051698;28;20024;-81
2021/01/06 02:11:50;;;;;;;12.10;6.28;;;3.10;99.90;;;;;;5069905;28;20111;-81
2021/01/06 02:14:21;;;;;;;12.63;6.05;;;3.10;99.90;;;;;;5052282;28;20526;-81
2021/01/06 02:16:54;;;;;;;10.85;6.55;;;3.00;99.90;;;;;;5070048;28;20096;-81
2021/01/06 02:19:23;;;;;;;16.30;6.40;;;3.00;99.90;;;;;;5052116;28;20027;-81
2021/01/06 02:21:49;;;;;;;23.48;7.72;;;3.00;99.90;;;;;;5051862;28;20036;-81
2021/01/06 02:24:15;;;;;;;16.17;6.00;;;3.00;99.90;;;;;;5051805;28;20028;-81
2021/01/06 02:26:41;;;;;;;11.45;5.97;;;3.00;99.90;;;;;;5052018;28;20032;-81
2021/01/06 02:29:07;;;;;;;16.05;6.72;;;3.00;99.90;;;;;;5051533;28;20587;-81
2021/01/06 02:31:32;;;;;;;24.48;5.55;;;3.00;99.90;;;;;;5051618;28;20508;-81
2021/01/06 02:33:58;;;;;;;13.43;6.00;;;3.00;99.90;;;;;;5055283;28;20086;-81
2021/01/06 02:36:25;;;;;;;25.15;7.43;;;3.00;99.90;;;;;;5051941;28;20036;-81
2021/01/06 02:38:51;;;;;;;22.77;6.50;;;3.00;99.90;;;;;;5051673;28;20063;-81
2021/01/06 02:41:17;;;;;;;13.95;6.00;;;3.00;99.90;;;;;;5051611;28;20071;-81
2021/01/06 02:43:43;;;;;;;13.88;6.38;;;3.00;99.90;;;;;;5051880;28;20453;-82
2021/01/06 02:46:10;;;;;;;10.65;5.85;;;2.90;99.90;;;;;;5047957;28;20034;-81
2021/01/06 02:48:38;;;;;;;18.08;6.75;;;3.00;99.90;;;;;;5070404;28;20430;-82
2021/01/06 02:51:17;;;;;;;15.85;6.25;;;2.90;99.90;;;;;;5051510;28;20115;-81
2021/01/06 02:53:49;;;;;;;11.45;5.93;;;2.90;99.90;;;;;;5069105;28;20167;-81
2021/01/06 02:56:15;;;;;;;;;;;2.90;99.90;;;;;;5051576;28;20093;-81
2021/01/06 02:58:42;;;;;;;9.85;4.75;;;2.90;99.90;;;;;;5056446;28;20278;-81
2021/01/06 03:01:11;;;;;;;15.10;6.38;;;2.90;99.90;;;;;;5051058;28;20032;-81
2021/01/06 03:03:39;;;;;;;13.77;7.18;;;2.90;99.90;;;;;;5051144;28;20044;-81
2021/01/06 03:06:33;;;;;;;15.73;5.63;;;2.90;99.90;;;;;;5051566;28;20079;-81
2021/01/06 03:09:00;;;;;;;13.93;6.65;;;2.90;99.90;;;;;;5037566;28;20045;-81
2021/01/06 03:11:26;;;;;;;16.65;7.20;;;2.80;99.90;;;;;;5051085;28;20119;-81
2021/01/06 03:13:52;;;;;;;17.33;8.02;;;2.90;99.90;;;;;;5069428;28;20064;-81
2021/01/06 03:16:18;;;;;;;16.90;9.35;;;2.90;99.90;;;;;;5068723;28;20036;-81
2021/01/06 03:18:43;;;;;;;16.85;7.80;;;2.90;99.90;;;;;;5072051;28;20031;-81
2021/01/06 03:21:09;;;;;;;16.45;7.90;;;2.90;99.90;;;;;;5051055;28;20028;-81
2021/01/06 03:23:49;;;;;;;13.75;7.40;;;2.90;99.90;;;;;;5050916;28;20024;-81
2021/01/06 03:26:19;;;;;;;10.57;5.43;;;2.90;99.90;;;;;;5051124;28;20020;-81
2021/01/06 03:28:46;;;;;;;11.65;6.28;;;2.90;99.90;;;;;;5050719;28;20491;-81
2021/01/06 03:31:42;;;;;;;21.60;8.05;;;2.90;99.90;;;;;;5057767;28;20488;-81
2021/01/06 03:34:27;;;;;;;17.23;8.48;;;2.90;99.90;;;;;;5072116;28;20020;-81
2021/01/06 03:37:03;;;;;;;16.88;6.28;;;2.90;99.90;;;;;;5055016;28;20032;-81
2021/01/06 03:39:35;;;;;;;17.45;6.60;;;2.90;99.90;;;;;;5054863;28;20020;-81
2021/01/06 03:42:02;;;;;;;14.05;6.53;;;2.90;99.90;;;;;;5055272;28;20127;-81
2021/01/06 03:44:29;;;;;;;22.65;7.88;;;2.90;99.90;;;;;;5054805;28;20027;-81
2021/01/06 03:47:05;;;;;;;20.55;6.72;;;2.90;99.90;;;;;;5054516;28;20040;-81
2021/01/06 03:49:49;;;;;;;21.33;5.97;;;2.90;99.90;;;;;;5054768;28;20067;-80
2021/01/06 03:52:38;;;;;;;18.25;7.30;;;2.80;99.90;;;;;;5035089;28;20037;-81
2021/01/06 03:55:10;;;;;;;27.23;8.73;;;2.90;99.90;;;;;;5052987;28;20024;-82
2021/01/06 03:57:37;;;;;;;12.23;5.57;;;2.80;99.90;;;;;;5072814;28;20042;-81
2021/01/06 04:00:42;;;;;;;18.48;7.32;;;2.80;99.90;;;;;;5055244;28;20016;-82
2021/01/06 04:03:29;;;;;;;16.25;6.47;;;2.80;99.90;;;;;;5008157;28;20390;-81
2021/01/06 04:05:57;;;;;;;16.33;6.03;;;2.80;99.90;;;;;;5005037;28;20042;-81
2021/01/06 04:08:39;;;;;;;21.63;7.55;;;2.80;99.90;;;;;;5016962;28;20046;-81
2021/01/06 04:11:07;;;;;;;14.18;7.03;;;2.80;99.90;;;;;;4994147;28;20038;-81
2021/01/06 04:13:33;;;;;;;16.38;7.47;;;2.80;99.90;;;;;;5009666;28;20784;-82
2021/01/06 04:15:59;;;;;;;12.95;6.28;;;2.80;99.90;;;;;;4993840;28;20157;-81
2021/01/06 04:18:24;;;;;;;30.10;7.40;;;2.80;99.90;;;;;;4979342;28;20023;-82
2021/01/06 04:20:50;;;;;;;18.23;7.35;;;2.80;99.90;;;;;;5009115;28;20147;-81
2021/01/06 04:23:18;;;;;;;24.17;7.00;;;2.80;99.90;;;;;;4994072;28;20030;-81
2021/01/06 04:25:46;;;;;;;17.80;6.40;;;2.80;99.90;;;;;;5010191;28;20032;-81
2021/01/06 04:28:18;;;;;;;32.30;6.38;;;2.80;99.90;;;;;;4994227;28;20041;-81
2021/01/06 04:30:52;;;;;;;12.77;4.88;;;2.80;99.90;;;;;;4982803;28;20030;-81
2021/01/06 04:33:25;;;;;;;12.05;6.13;;;2.80;99.90;;;;;;5008967;28;20042;-81
2021/01/06 04:35:52;;;;;;;25.58;6.10;;;2.80;99.90;;;;;;5007397;28;20038;-81
2021/01/06 04:38:27;;;;;;;15.30;6.55;;;2.80;99.90;;;;;;4992894;28;20080;-81
2021/01/06 04:41:11;;;;;;;16.48;6.90;;;2.90;99.90;;;;;;5056577;28;20112;-82
2021/01/06 04:43:59;;;;;;;12.18;5.70;;;2.80;99.90;;;;;;5070385;28;20020;-81
2021/01/06 04:46:31;;;;;;;13.27;5.32;;;2.80;99.90;;;;;;5046205;28;20041;-81
2021/01/06 04:49:15;;;;;;;;;;;2.80;99.90;;;;;;5071569;28;20021;-81
2021/01/06 04:51:50;;;;;;;16.73;6.07;;;2.80;99.90;;;;;;5053220;28;20007;-81
2021/01/06 04:54:36;;;;;;;21.92;7.55;;;2.80;99.90;;;;;;5071344;28;20035;-81
2021/01/06 04:57:45;;;;;;;16.98;6.07;;;2.80;99.90;;;;;;5049932;28;20028;-82
2021/01/06 05:00:11;;;;;;;14.38;5.07;;;2.70;99.90;;;;;;4986265;28;20082;-81
2021/01/06 05:03:06;;;;;;;16.23;6.55;;;2.70;99.90;;;;;;4977793;28;20062;-81
2021/01/06 05:06:02;;;;;;;11.82;6.30;;;2.60;99.90;;;;;;4968469;28;20097;-83
2021/01/06 05:08:41;;;;;;;14.88;5.18;;;2.60;99.90;;;;;;4975544;28;20399;-83
2021/01/06 05:11:14;;;;;;;9.27;5.15;;;2.60;99.90;;;;;;4989835;28;20045;-83
2021/01/06 05:13:54;;;;;;;14.88;5.15;;;2.60;99.90;;;;;;4989980;28;20061;-83
2021/01/06 05:16:30;;;;;;;11.80;5.68;;;2.60;99.90;;;;;;4989649;28;20054;-83
2021/01/06 05:18:56;;;;;;;17.35;7.28;;;2.60;99.90;;;;;;4990660;28;20423;-83
2021/01/06 05:21:27;;;;;;;12.77;6.85;;;2.60;99.90;;;;;;4989167;28;20134;-82
2021/01/06 05:24:13;;;;;;;;;;;2.60;99.90;;;;;;4990222;28;20328;-83
2021/01/06 05:26:39;;;;;;;14.57;6.68;;;2.60;99.90;;;;;;4950358;29;20295;-83
2021/01/06 05:29:17;;;;;;;14.30;6.22;;;2.60;99.90;;;;;;4932882;29;20039;-82
2021/01/06 05:31:43;;;;;;;15.90;6.60;;;2.60;99.90;;;;;;4948420;29;20073;-81
2021/01/06 05:34:08;;;;;;;15.63;6.32;;;2.60;99.90;;;;;;4930764;29;20139;-81
2021/01/06 05:36:34;;;;;;;14.40;6.13;;;2.60;99.90;;;;;;5016339;28;20046;-80
2021/01/06 05:39:09;;;;;;;15.95;6.22;;;2.60;99.90;;;;;;5010901;28;20545;-81
2021/01/06 05:41:35;;;;;;;17.58;5.25;;;2.60;99.90;;;;;;5015301;28;20125;-82
2021/01/06 05:44:01;;;;;;;11.02;5.30;;;2.60;99.90;;;;;;5011014;28;20128;-83
2021/01/06 05:46:31;;;;;;;13.50;5.75;;;2.60;99.90;;;;;;5011299;28;20489;-80
2021/01/06 05:49:10;;;;;;;20.58;6.07;;;2.70;99.90;;;;;;5027152;28;20033;-80
2021/01/06 05:51:41;;;;;;;10.93;4.95;;;2.60;99.90;;;;;;5021547;28;20402;-81
2021/01/06 05:54:27;;;;;;;11.30;4.85;;;2.60;99.90;;;;;;5010052;28;20026;-81
2021/01/06 05:57:03;;;;;;;12.35;5.72;;;2.60;99.90;;;;;;5024750;28;20034;-81
2021/01/06 05:59:35;;;;;;;13.65;6.05;;;2.60;99.90;;;;;;5026939;28;20029;-81
2021/01/06 06:02:33;;;;;;;10.63;5.10;;;2.60;99.90;;;;;;5010074;28;20176;-81
2021/01/06 06:05:20;;;;;;;13.00;5.03;;;2.60;99.90;;;;;;5048926;28;20033;-81
2021/01/06 06:08:04;;;;;;;21.52;9.88;;;2.60;99.90;;;;;;5048248;28;20031;-81
2021/01/06 06:10:51;;;;;;;16.92;5.00;;;2.70;99.90;;;;;;5067137;28;20021;-81
2021/01/06 06:13:35;;;;;;;19.45;6.18;;;2.70;99.90;;;;;;5053995;28;20489;-80
2021/01/06 06:16:04;;;;;;;20.85;6.22;;;2.70;99.90;;;;;;5066626;28;20024;-81
2021/01/06 06:18:53;;;;;;;9.43;4.78;;;2.70;99.90;;;;;;5050467;28;20169;-81
2021/01/06 06:21:35;;;;;;;17.00;5.43;;;2.60;99.90;;;;;;5065148;28;20036;-81
2021/01/06 06:24:15;;;;;;;;;;;2.60;99.90;;;;;;5050260;28;20024;-81
2021/01/06 06:27:05;;;;;;;14.75;4.03;;;2.60;99.90;;;;;;5049883;28;19963;-80
2021/01/06 06:29:52;;;;;;;15.38;4.68;;;2.70;99.90;;;;;;5049697;28;20051;-80
2021/01/06 06:32:28;;;;;;;14.00;5.40;;;2.60;99.90;;;;;;5049626;28;20036;-80
2021/01/06 06:35:22;;;;;;;18.17;5.50;;;2.70;99.90;;;;;;5048682;28;20028;-80
2021/01/06 06:37:57;;;;;;;17.83;5.75;;;2.60;99.90;;;;;;5067493;28;20107;-79
2021/01/06 06:40:24;;;;;;;12.95;5.32;;;2.70;99.90;;;;;;5048608;28;20056;-80
2021/01/06 06:42:56;;;;;;;13.45;4.85;;;2.70;99.90;;;;;;5053592;28;20094;-80
2021/01/06 06:45:40;;;;;;;23.73;6.05;;;2.70;99.90;;;;;;5050408;28;20100;-80
2021/01/06 06:48:15;;;;;;;17.70;4.88;;;2.70;99.90;;;;;;5047746;28;20123;-80
2021/01/06 06:50:53;;;;;;;20.20;5.80;;;2.70;99.90;;;;;;5065375;28;20033;-80
2021/01/06 06:53:53;;;;;;;13.20;4.57;;;2.70;99.90;;;;;;5048900;28;20029;-80
2021/01/06 06:56:43;;;;;;;19.67;5.47;;;2.70;99.90;;;;;;5049393;28;20040;-80
2021/01/06 06:59:32;;;;;;;10.05;4.75;;;2.60;99.90;;;;;;5049065;28;20021;-81
2021/01/06 07:02:02;;;;;;;17.52;4.93;;;2.70;99.90;;;;;;5017233;28;20056;-81
2021/01/06 07:04:41;;;;;;;13.93;4.67;;;2.70;99.90;;;;;;5003089;28;20069;-82
2021/01/06 07:07:18;;;;;;;12.60;5.22;;;2.70;99.90;;;;;;5003683;28;20169;-81
2021/01/06 07:09:50;;;;;;;16.10;4.70;;;2.60;99.90;;;;;;5007442;28;20128;-83
2021/01/06 07:12:17;;;;;;;20.30;6.10;;;2.70;99.90;;;;;;5019945;28;20037;-84
2021/01/06 07:14:53;;;;;;;19.73;6.95;;;2.70;99.90;;;;;;5006477;28;20483;-80
2021/01/06 07:17:30;;;;;;;20.25;5.82;;;2.70;99.90;;;;;;5003453;28;20041;-80
2021/01/06 07:20:01;;;;;;;22.52;5.50;;;2.70;99.90;;;;;;5012481;28;20057;-80
2021/01/06 07:22:56;;;;;;;20.67;5.57;;;2.70;99.90;;;;;;5004525;28;20084;-80
2021/01/06 07:25:31;;;;;;;18.13;4.90;;;2.70;99.90;;;;;;5010703;28;20048;-80
2021/01/06 07:28:03;;;;;;;26.88;4.82;;;2.70;99.90;;;;;;5008581;28;20402;-80
2021/01/06 07:30:40;;;;;;;11.07;5.30;;;2.70;99.90;;;;;;5016379;28;20030;-80
2021/01/06 07:33:31;;;;;;;13.48;4.30;;;2.70;99.90;;;;;;5026683;28;20119;-80
2021/01/06 07:36:29;;;;;;;10.38;4.85;;;2.70;99.90;;;;;;5047016;28;20032;-80
2021/01/06 07:38:56;;;;;;;9.25;4.35;;;2.70;99.90;;;;;;4969700;28;20065;-80
2021/01/06 07:41:24;;;;;;;9.38;5.00;;;2.60;99.90;;;;;;4965490;28;20575;-81
2021/01/06 07:44:21;;;;;;;19.13;4.50;;;2.70;99.90;;;;;;4966717;28;20058;-81
2021/01/06 07:47:01;;;;;;;12.88;4.55;;;2.70;99.90;;;;;;4960486;28;20377;-80
2021/01/06 07:49:37;;;;;;;10.88;4.85;;;2.70;99.90;;;;;;4964682;28;20038;-81
2021/01/06 07:52:44;;;;;;;8.65;4.63;;;2.60;99.90;;;;;;4961734;28;20062;-81
2021/01/06 07:55:51;;;;;;;9.75;4.63;;;2.70;99.90;;;;;;4957070;28;20038;-81
2021/01/06 07:58:27;;;;;;;10.68;4.68;;;2.70;99.90;;;;;;4951391;28;20512;-81
2021/01/06 08:00:55;;;;;;;11.50;5.13;;;2.70;99.90;;;;;;4968785;28;20550;-81
2021/01/06 08:03:34;;;;;;;16.13;4.82;;;2.70;99.90;;;;;;4970956;28;20050;-81
2021/01/06 08:06:01;;;;;;;11.77;5.03;;;2.70;99.90;;;;;;4953057;28;20082;-80
2021/01/06 08:08:48;;;;;;;11.48;6.38;;;2.60;99.90;;;;;;4962828;28;20137;-81
2021/01/06 08:11:17;;;;;;;8.75;3.88;;;2.70;99.90;;;;;;4966717;28;20118;-81
2021/01/06 08:13:51;;;;;;;14.27;5.47;;;2.70;99.90;;;;;;4965925;28;20023;-80
2021/01/06 08:16:43;;;;;;;12.70;4.85;;;2.70;99.90;;;;;;5007835;28;20033;-81
2021/01/06 08:19:29;;;;;;;15.27;6.30;;;2.70;99.90;;;;;;5003934;28;20172;-81
2021/01/06 08:22:18;;;;;;;17.05;7.03;;;2.70;99.90;;;;;;5005251;28;20025;-80
2021/01/06 08:25:11;;;;;;;10.55;5.32;;;2.80;99.90;;;;;;5004827;28;20027;-80
2021/01/06 08:27:36;;;;;;;10.82;5.90;;;2.80;99.90;;;;;;5021890;28;20127;-80
2021/01/06 08:30:08;;;;;;;17.30;7.00;;;2.80;99.90;;;;;;4983193;28;20344;-80
2021/01/06 08:32:34;;;;;;;17.75;7.35;;;2.70;99.90;;;;;;4966141;28;20129;-80
2021/01/06 08:35:03;;;;;;;24.25;7.32;;;2.70;99.90;;;;;;4961797;28;20167;-80
2021/01/06 08:37:37;;;;;;;15.45;6.95;;;2.70;99.90;;;;;;4960429;28;20050;-80
2021/01/06 08:40:26;;;;;;;15.93;6.28;;;2.70;99.90;;;;;;4965540;28;20125;-80
2021/01/06 08:42:51;;;;;;;17.10;5.50;;;2.70;99.90;;;;;;4982217;28;20065;-80
2021/01/06 08:45:31;;;;;;;12.48;6.45;;;2.70;99.90;;;;;;4965006;28;20618;-79
2021/01/06 08:48:11;;;;;;;19.45;6.25;;;2.70;99.90;;;;;;4997383;28;20065;-80
2021/01/06 08:50:39;;;;;;;14.73;7.25;;;2.70;99.90;;;;;;5009813;28;20083;-81
2021/01/06 08:53:06;;;;;;;14.50;6.57;;;2.60;99.90;;;;;;5003741;28;20504;-81
2021/01/06 08:55:40;;;;;;;17.00;6.85;;;2.50;99.90;;;;;;5004414;28;20091;-79
2021/01/06 08:58:11;;;;;;;12.73;6.70;;;2.50;99.90;;;;;;5021829;28;20033;-80
2021/01/06 09:00:41;;;;;;;19.20;7.70;;;2.50;99.90;;;;;;5016562;28;20059;-80
2021/01/06 09:03:06;;;;;;;14.85;5.63;;;2.50;99.90;;;;;;5048043;28;20423;-80
2021/01/06 09:05:36;;;;;;;16.90;6.68;;;2.50;99.90;;;;;;5046067;28;20139;-80
2021/01/06 09:08:08;;;;;;;15.93;6.13;;;2.50;99.90;;;;;;5044844;28;20039;-79
2021/01/06 09:10:43;;;;;;;14.75;6.32;;;2.50;99.90;;;;;;5045774;28;20029;-80
2021/01/06 09:13:15;;;;;;;16.38;6.95;;;2.60;99.90;;;;;;5047711;28;20071;-79
2021/01/06 09:15:46;;;;;;;13.38;5.88;;;2.60;99.90;;;;;;5062185;28;20059;-79
2021/01/06 09:18:24;;;;;;;19.52;6.53;;;2.60;99.90;;;;;;5052607;28;20088;-81
2021/01/06 09:21:16;;;;;;;14.13;6.55;;;2.60;99.90;;;;;;5046534;28;20044;-80
2021/01/06 09:23:46;;;;;;;12.65;6.25;;;2.60;99.90;;;;;;5047546;28;20696;-81
2021/01/06 09:26:15;;;;;;;11.32;5.85;;;2.60;99.90;;;;;;5047307;28;20454;-80
2021/01/06 09:28:45;;;;;;;10.07;5.93;;;2.60;99.90;;;;;;5047954;28;20769;-80
2021/01/06 09:31:13;;;;;;;13.50;6.22;;;2.60;99.90;;;;;;5043899;28;20555;-80
2021/01/06 09:33:41;;;;;;;17.48;6.95;;;2.70;99.90;;;;;;5062864;28;20085;-80
2021/01/06 09:36:07;;;;;;;14.85;6.50;;;2.70;99.90;;;;;;5064702;28;20115;-80
2021/01/06 09:38:42;;;;;;;13.25;6.70;;;2.70;99.90;;;;;;5044501;28;20025;-81
2021/01/06 09:41:19;;;;;;;14.80;6.53;;;2.70;99.90;;;;;;5044322;28;20170;-81
2021/01/06 09:43:54;;;;;;;16.17;7.38;;;2.80;99.90;;;;;;5059515;28;20033;-81
2021/01/06 09:46:53;;;;;;;18.42;7.07;;;2.80;99.90;;;;;;5055792;28;20037;-80
2021/01/06 09:49:36;;;;;;;10.18;5.63;;;2.80;99.90;;;;;;5044377;28;20078;-80
2021/01/06 09:52:22;;;;;;;14.05;5.80;;;2.80;99.90;;;;;;5043752;28;20040;-80
2021/01/06 09:54:52;;;;;;;12.00;6.38;;;2.70;99.90;;;;;;5045043;28;20113;-80
2021/01/06 09:57:20;;;;;;;14.57;5.70;;;2.70;99.90;;;;;;5041464;28;20108;-81
2021/01/06 09:59:50;;;;;;;10.35;5.63;;;2.70;99.90;;;;;;5040057;28;20079;-81
2021/01/06 10:02:26;;;;;;;20.08;6.50;;;2.70;99.90;;;;;;5043878;28;20111;-81
2021/01/06 10:04:57;;;;;;;17.67;7.75;;;2.70;99.90;;;;;;5039465;28;20032;-81
2021/01/06 10:07:40;;;;;;;15.07;6.85;;;2.70;99.90;;;;;;5040014;28;20033;-81
2021/01/06 10:10:15;;;;;;;14.85;6.75;;;2.80;99.90;;;;;;5039218;28;20423;-81
2021/01/06 10:13:04;;;;;;;14.10;6.03;;;2.70;99.90;;;;;;5044765;28;20047;-82
2021/01/06 10:15:57;;;;;;;15.57;7.60;;;2.70;99.90;;;;;;5043928;28;20143;-82
2021/01/06 10:18:42;;;;;;;11.82;6.20;;;2.70;99.90;;;;;;5043707;28;20039;-82
2021/01/06 10:21:13;;;;;;;18.13;7.47;;;2.60;99.90;;;;;;5042443;28;20384;-83
2021/01/06 10:23:51;;;;;;;;;;;2.70;99.90;;;;;;5044602;28;20170;-83
2021/01/06 10:26:35;;;;;;;21.20;8.82;;;2.60;99.90;;;;;;5053924;28;19920;-82
2021/01/06 10:29:13;;;;;;;15.52;7.70;;;2.70;99.90;;;;;;5044024;28;20116;-85
2021/01/06 10:32:00;;;;;;;20.77;9.50;;;2.70;99.90;;;;;;5058057;28;20040;-81
2021/01/06 10:34:47;;;;;;;22.25;9.35;;;2.60;99.90;;;;;;5055108;28;20040;-81
2021/01/06 10:37:18;;;;;;;24.85;10.02;;;2.60;99.90;;;;;;5037303;28;20082;-80
2021/01/06 10:39:46;;;;;;;;;;;2.60;99.90;;;;;;5038301;28;20481;-81
2021/01/06 10:42:21;;;;;;;17.80;8.80;;;2.60;99.90;;;;;;5043316;28;19908;-81
2021/01/06 10:45:12;;;;;;;20.63;9.25;;;2.70;99.90;;;;;;5058559;28;20029;-81
2021/01/06 10:47:53;;;;;;;23.58;9.88;;;2.70;99.90;;;;;;5059911;28;20044;-80
2021/01/06 10:50:31;;;;;;;18.83;8.70;;;2.70;99.90;;;;;;5042474;28;20067;-81
2021/01/06 10:52:59;;;;;;;21.92;9.50;;;2.70;99.90;;;;;;5056132;28;20044;-81
2021/01/06 10:55:39;;;;;;;21.33;9.75;;;2.60;99.90;;;;;;5030781;28;20063;-81
2021/01/06 10:58:34;;;;;;;21.65;9.05;;;2.60;99.90;;;;;;5039110;28;20074;-81
2021/01/06 11:01:05;;;;;;;23.50;9.18;;;2.60;99.90;;;;;;5036672;28;20036;-80
2021/01/06 11:03:54;;;;;;;20.08;11.02;;;2.60;99.90;;;;;;5051249;28;20111;-81
2021/01/06 11:06:45;;;;;;;22.42;11.15;;;2.70;99.90;;;;;;5040746;28;20043;-81
2021/01/06 11:09:41;;;;;;;22.23;9.77;;;2.70;99.90;;;;;;5055883;28;20040;-81
2021/01/06 11:12:51;;;;;;;23.90;9.90;;;2.70;99.90;;;;;;5036511;28;20058;-81
2021/01/06 11:15:41;;;;;;;30.20;10.32;;;2.70;99.90;;;;;;4957909;28;20061;-80
2021/01/06 11:18:22;;;;;;;36.95;14.38;;;2.70;99.90;;;;;;4959947;28;20126;-81
2021/01/06 11:21:05;;;;;;;26.63;11.15;;;2.80;99.90;;;;;;4959152;28;20129;-81
2021/01/06 11:23:34;;;;;;;25.50;11.25;;;2.80;99.90;;;;;;4959264;28;20034;-80
2021/01/06 11:26:24;;;;;;;20.70;10.70;;;2.90;99.90;;;;;;4960828;28;20047;-81
2021/01/06 11:29:12;;;;;;;20.73;11.25;;;2.90;99.90;;;;;;4914698;29;20031;-81
2021/01/06 11:31:42;;;;;;;23.10;10.13;;;2.90;99.90;;;;;;4909455;29;20070;-81
2021/01/06 11:34:07;;;;;;;18.08;9.00;;;2.80;99.90;;;;;;4868901;29;20511;-81
2021/01/06 11:36:46;;;;;;;16.95;8.55;;;2.80;99.90;;;;;;4868653;29;20052;-81
2021/01/06 11:39:37;;;;;;;21.85;10.45;;;2.90;99.90;;;;;;4866745;29;20045;-81
2021/01/06 11:42:22;;;;;;;24.38;8.70;;;2.90;99.90;;;;;;4860547;29;20051;-82
2021/01/06 11:45:06;;;;;;;19.63;10.80;;;2.90;99.90;;;;;;4865577;29;20025;-82
2021/01/06 11:47:52;;;;;;;23.02;10.88;;;2.90;99.90;;;;;;4862473;29;20148;-81
2021/01/06 11:50:44;;;;;;;20.80;10.50;;;3.00;99.90;;;;;;4865864;29;20410;-81
2021/01/06 11:53:16;;;;;;;;;;;2.90;99.90;;;;;;4935409;28;20039;-80
2021/01/06 11:55:49;;;;;;;19.30;8.07;;;2.90;99.90;;;;;;4924732;28;19918;-80
2021/01/06 11:58:30;;;;;;;23.10;11.13;;;2.80;99.90;;;;;;4948317;28;20464;-80
2021/01/06 12:01:33;;;;;;;15.27;9.48;;;2.80;99.90;;;;;;4927218;29;20497;-80
2021/01/06 12:04:11;;;;;;;17.13;10.48;;;2.60;99.90;;;;;;4925714;29;20039;-80
2021/01/06 12:06:58;;;;;;;21.50;12.10;;;2.60;99.90;;;;;;4956907;28;20454;-80
2021/01/06 12:10:05;;;;;;;25.00;13.40;;;2.60;99.90;;;;;;4965208;28;20755;-80
2021/01/06 12:12:48;;;;;;;21.15;10.07;;;2.60;99.90;;;;;;4903393;29;20150;-80
2021/01/06 12:15:40;;;;;;;18.92;10.05;;;2.60;99.90;;;;;;4900940;29;20476;-82
2021/01/06 12:18:26;;;;;;;25.05;12.07;;;2.60;99.90;;;;;;4920605;29;20119;-82
2021/01/06 12:20:52;;;;;;;22.63;10.75;;;2.70;99.90;;;;;;4906631;29;20099;-80
2021/01/06 12:23:39;;;;;;;17.35;8.77;;;2.70;99.90;;;;;;4911171;29;20413;-81
2021/01/06 12:26:25;;;;;;;21.75;10.23;;;2.70;99.90;;;;;;4920159;29;20047;-79
2021/01/06 12:28:53;;;;;;;22.77;13.02;;;2.70;99.90;;;;;;4918158;29;20864;-81
2021/01/06 12:31:24;;;;;;;23.60;12.02;;;2.70;99.90;;;;;;4935317;28;20141;-80
2021/01/06 12:34:05;;;;;;;22.80;10.70;;;2.70;99.90;;;;;;4977179;28;20033;-80
2021/01/06 12:36:37;;;;;;;20.63;10.90;;;2.70;99.90;;;;;;4975684;28;20113;-80
2021/01/06 12:39:36;;;;;;;17.00;10.68;;;2.80;99.90;;;;;;4972020;28;20035;-80
2021/01/06 12:42:13;;;;;;;18.73;9.18;;;2.80;99.90;;;;;;4962147;28;20049;-79
2021/01/06 12:44:43;;;;;;;25.38;11.90;;;2.70;99.90;;;;;;4977535;28;20140;-80
2021/01/06 12:47:21;;;;;;;23.58;12.18;;;2.70;99.90;;;;;;4977598;28;20866;-80
2021/01/06 12:50:16;;;;;;;25.45;11.52;;;2.70;99.90;;;;;;5034053;28;20442;-81
2021/01/06 12:52:53;;;;;;;23.05;11.60;;;2.70;99.90;;;;;;5038928;28;20154;-80
2021/01/06 12:55:39;;;;;;;24.77;10.93;;;2.80;99.90;;;;;;5036807;28;20064;-81
2021/01/06 12:58:17;;;;;;;19.50;10.65;;;2.80;99.90;;;;;;5036730;28;20048;-80
2021/01/06 13:00:45;;;;;;;23.25;10.43;;;2.70;99.90;;;;;;5041576;28;20141;-81
2021/01/06 13:03:46;;;;;;;17.35;8.95;;;2.60;99.90;;;;;;5039183;28;20029;-81
2021/01/06 13:06:32;;;;;;;26.33;8.27;;;2.60;99.90;;;;;;5001388;28;20042;-81
2021/01/06 13:09:13;;;;;;;28.80;10.48;;;2.60;99.90;;;;;;4960156;28;20043;-81
2021/01/06 13:11:41;;;;;;;18.45;9.77;;;2.50;99.90;;;;;;4959412;28;20054;-80
2021/01/06 13:14:22;;;;;;;18.80;10.55;;;2.60;99.90;;;;;;4958511;28;20161;-80
2021/01/06 13:16:55;;;;;;;16.67;9.13;;;2.60;99.90;;;;;;4959273;28;20104;-80
2021/01/06 13:19:27;;;;;;;31.60;11.00;;;2.60;99.90;;;;;;4959673;28;20066;-81
2021/01/06 13:22:23;;;;;;;21.30;9.20;;;2.60;99.90;;;;;;4974509;28;20061;-81
2021/01/06 13:25:10;;;;;;;15.98;8.32;;;2.60;99.90;;;;;;4907506;29;20054;-83
2021/01/06 13:27:50;;;;;;;15.18;8.00;;;2.70;99.90;;;;;;4906693;29;20036;-83
2021/01/06 13:30:33;;;;;;;14.43;7.30;;;2.60;99.90;;;;;;4918559;29;20445;-80
2021/01/06 13:33:14;;;;;;;14.00;8.88;;;2.60;99.90;;;;;;4922209;29;20058;-81